Terminal Aerodrome Forecast
Issued by NWS Grand Forks, ND

Home | Current Version | Previous Version | Graphics & Text | Print | Product List | Glossary On
Versions: 1 2 3 4 5 6 7 8 9 10 11 12 13 14 15 16 17 18 19 20 21 22 23 24
000
FTUS43 KFGF 190500
TAFGFK
TAF
KGFK 190520Z 1906/2006 18018KT P6SM BKN250
      TEMPO 1906/1908 -SHRA BKN080
     FM191500 22012KT P6SM BKN040
     FM192100 26012KT P6SM BKN120=

USA.gov is the U.S. government's official web portal to all federal, state and local government web resources and services.